Terminal Aerodrome Forecast
Issued by NWS

Home | Current Version | Previous Version | Text Only | Print | Product List | Glossary On
Versions: 1 2 3 4 5 6 7 8 9 10 11 12 13 14 15 16 17 18
000
FTUS46 KMFR 231100 RRA
TAFLMT
TAF
KLMT 231149Z 2312/2412 18006KT P6SM SCT100
     FM231700 18012G19KT P6SM SCT080
     FM232100 25020G30KT P6SM VCSH SCT040 BKN080
     FM240300 32016KT P6SM SCT040
     FM240600 27005KT P6SM FEW040=

USA.gov is the U.S. government's official web portal to all federal, state and local government web resources and services.